Time;durP1;ratioP1;P1;durP2;ratioP2;P2;SDS_P1;SDS_P2;PMS_P1;PMS_P2;Temp;Humidity;BMP_temperature;BMP_pressure;BME280_temperature;BME280_humidity;BME280_pressure;Samples;Min_cycle;Max_cycle;Signal;HPM_P1;HPM_P2
2022/01/05 00:00:15;;;;;;;8.60;1.58;;;;;;;;;;5074130;28;20487;-62
2022/01/05 00:02:41;;;;;;;8.02;1.70;;;;;;;;;;5073978;28;20055;-62
2022/01/05 00:05:08;;;;;;;9.68;1.63;;;;;;;;;;5073345;28;20056;-62
2022/01/05 00:07:34;;;;;;;8.02;1.92;;;;;;;;;;5074002;28;20041;-62
2022/01/05 00:10:00;;;;;;;10.55;1.70;;;;;;;;;;5073978;28;20505;-62
2022/01/05 00:12:26;;;;;;;14.43;2.70;;;;;;;;;;5073198;28;20490;-62
2022/01/05 00:14:52;;;;;;;7.30;1.48;;;;;;;;;;5073444;28;20386;-62
2022/01/05 00:17:18;;;;;;;4.75;1.10;;;;;;;;;;5073847;28;20041;-62
2022/01/05 00:19:44;;;;;;;12.52;1.58;;;;;;;;;;5073171;28;20047;-62
2022/01/05 00:22:11;;;;;;;6.25;1.33;;;;;;;;;;5073660;28;20050;-61
2022/01/05 00:24:37;;;;;;;11.15;2.28;;;;;;;;;;5073109;28;20689;-61
2022/01/05 00:27:04;;;;;;;8.10;1.35;;;;;;;;;;5072556;28;20044;-61
2022/01/05 00:29:30;;;;;;;7.82;1.10;;;;;;;;;;5073039;28;20040;-61
2022/01/05 00:31:56;;;;;;;9.88;1.45;;;;;;;;;;5073474;28;20041;-62
2022/01/05 00:34:22;;;;;;;6.20;1.13;;;;;;;;;;5072499;28;20044;-62
2022/01/05 00:36:48;;;;;;;8.57;1.20;;;;;;;;;;5073416;28;20042;-61
2022/01/05 00:39:14;;;;;;;5.03;1.60;;;;;;;;;;5073266;28;20036;-62
2022/01/05 00:41:40;;;;;;;18.33;1.70;;;;;;;;;;5072604;28;20426;-62
2022/01/05 00:44:06;;;;;;;7.47;1.45;;;;;;;;;;5072908;28;20033;-62
2022/01/05 00:46:32;;;;;;;6.50;1.35;;;;;;;;;;5073166;28;20048;-62
2022/01/05 00:48:58;;;;;;;11.02;1.65;;;;;;;;;;5072349;28;20446;-62
2022/01/05 00:51:25;;;;;;;6.28;1.20;;;;;;;;;;5072727;28;20040;-62
2022/01/05 00:53:51;;;;;;;9.60;1.67;;;;;;;;;;5072783;28;20451;-62
2022/01/05 00:56:17;;;;;;;5.18;1.70;;;;;;;;;;5071958;28;20170;-62
2022/01/05 00:58:43;;;;;;;10.60;1.40;;;;;;;;;;5072846;28;20036;-62
2022/01/05 01:01:09;;;;;;;6.70;1.20;;;;;;;;;;5072864;28;20033;-62
2022/01/05 01:03:36;;;;;;;10.18;1.52;;;;;;;;;;5072093;28;20040;-62
2022/01/05 01:06:02;;;;;;;6.93;1.30;;;;;;;;;;5072714;28;20048;-62
2022/01/05 01:08:28;;;;;;;5.57;1.20;;;;;;;;;;5072718;28;20131;-62
2022/01/05 01:10:54;;;;;;;5.97;1.30;;;;;;;;;;5072118;28;20037;-62
2022/01/05 01:13:21;;;;;;;10.13;1.90;;;;;;;;;;5072371;28;20597;-62
2022/01/05 01:15:48;;;;;;;10.73;1.33;;;;;;;;;;5072535;28;20083;-62
2022/01/05 01:18:15;;;;;;;7.43;1.17;;;;;;;;;;5071985;28;20044;-62
2022/01/05 01:20:41;;;;;;;7.28;1.08;;;;;;;;;;5072149;28;20040;-62
2022/01/05 01:23:08;;;;;;;8.55;1.10;;;;;;;;;;5072362;28;20067;-62
2022/01/05 01:25:34;;;;;;;13.27;2.38;;;;;;;;;;5071265;28;20049;-62
2022/01/05 01:28:02;;;;;;;7.70;1.45;;;;;;;;;;5072363;28;20044;-62
2022/01/05 01:30:30;;;;;;;8.45;1.38;;;;;;;;;;5072243;28;20044;-62
2022/01/05 01:32:57;;;;;;;7.93;1.30;;;;;;;;;;5071193;28;20044;-61
2022/01/05 01:35:23;;;;;;;11.43;1.38;;;;;;;;;;5071537;28;20463;-61
2022/01/05 01:37:49;;;;;;;10.45;1.38;;;;;;;;;;5072198;28;20036;-62
2022/01/05 01:40:15;;;;;;;7.32;1.30;;;;;;;;;;5071483;28;20573;-62
2022/01/05 01:42:41;;;;;;;9.90;1.70;;;;;;;;;;5071568;28;20036;-62
2022/01/05 01:45:07;;;;;;;7.60;1.33;;;;;;;;;;5072031;28;20059;-62
2022/01/05 01:47:33;;;;;;;10.55;1.33;;;;;;;;;;5071338;28;20076;-62
2022/01/05 01:49:59;;;;;;;8.38;1.20;;;;;;;;;;5072035;28;20040;-62
2022/01/05 01:52:25;;;;;;;6.97;1.10;;;;;;;;;;5071819;28;20125;-62
2022/01/05 01:54:51;;;;;;;7.93;1.38;;;;;;;;;;5070818;28;20049;-61
2022/01/05 01:57:20;;;;;;;12.82;1.92;;;;;;;;;;5071854;28;20097;-61
2022/01/05 01:59:46;;;;;;;9.15;1.70;;;;;;;;;;5071795;28;20044;-61
2022/01/05 02:02:12;;;;;;;13.82;1.80;;;;;;;;;;5071482;28;20075;-61
2022/01/05 02:04:41;;;;;;;14.77;1.60;;;;;;;;;;5071637;28;20417;-61
2022/01/05 02:07:07;;;;;;;8.75;1.88;;;;;;;;;;5071713;28;20055;-61
2022/01/05 02:09:33;;;;;;;9.65;1.52;;;;;;;;;;5071499;28;20569;-61
2022/01/05 02:11:59;;;;;;;8.70;1.75;;;;;;;;;;5071376;28;20496;-61
2022/01/05 02:14:25;;;;;;;11.75;3.63;;;;;;;;;;5071219;28;20048;-61
2022/01/05 02:16:51;;;;;;;8.43;1.33;;;;;;;;;;5071633;28;20464;-61
2022/01/05 02:19:18;;;;;;;9.65;1.48;;;;;;;;;;5070999;28;20041;-61
2022/01/05 02:21:44;;;;;;;10.18;1.50;;;;;;;;;;5071330;28;20123;-61
2022/01/05 02:24:10;;;;;;;12.65;3.20;;;;;;;;;;5071295;28;20045;-61
2022/01/05 02:26:38;;;;;;;10.13;1.52;;;;;;;;;;5070761;28;20091;-61
2022/01/05 02:29:04;;;;;;;8.85;1.92;;;;;;;;;;5071073;28;20054;-61
2022/01/05 02:31:30;;;;;;;12.48;1.83;;;;;;;;;;5071498;28;20040;-61
2022/01/05 02:33:56;;;;;;;9.38;1.70;;;;;;;;;;5070721;28;20044;-61
2022/01/05 02:36:22;;;;;;;15.45;1.98;;;;;;;;;;5071468;28;20410;-61
2022/01/05 02:38:49;;;;;;;11.98;1.52;;;;;;;;;;5071554;28;20041;-61
2022/01/05 02:41:15;;;;;;;16.50;1.88;;;;;;;;;;5070770;28;20053;-61
2022/01/05 02:43:42;;;;;;;17.55;2.10;;;;;;;;;;5071092;28;20113;-61
2022/01/05 02:46:13;;;;;;;15.32;2.00;;;;;;;;;;5071404;28;20112;-61
2022/01/05 02:48:40;;;;;;;9.40;1.65;;;;;;;;;;5073668;28;20044;-61
2022/01/05 02:51:06;;;;;;;11.88;2.00;;;;;;;;;;5075146;28;20041;-62
2022/01/05 02:53:33;;;;;;;12.52;2.17;;;;;;;;;;5075184;28;20197;-62
2022/01/05 02:55:59;;;;;;;14.98;1.77;;;;;;;;;;5074491;28;20120;-61
2022/01/05 02:58:25;;;;;;;30.85;2.92;;;;;;;;;;5074927;28;20531;-62
2022/01/05 03:00:51;;;;;;;10.82;3.35;;;;;;;;;;5075248;28;20157;-62
2022/01/05 03:03:17;;;;;;;15.15;1.92;;;;;;;;;;5074304;28;20036;-62
2022/01/05 03:05:43;;;;;;;9.70;1.90;;;;;;;;;;5075124;28;20045;-62
2022/01/05 03:08:10;;;;;;;9.35;1.60;;;;;;;;;;5075096;28;20044;-62
2022/01/05 03:10:36;;;;;;;17.77;1.80;;;;;;;;;;5074043;28;20040;-62
2022/01/05 03:13:02;;;;;;;12.15;1.85;;;;;;;;;;5074659;28;20043;-61
2022/01/05 03:15:28;;;;;;;15.10;2.05;;;;;;;;;;5074810;28;20040;-61
2022/01/05 03:17:55;;;;;;;12.40;1.70;;;;;;;;;;5074264;28;20036;-61
2022/01/05 03:20:22;;;;;;;12.50;2.58;;;;;;;;;;5074878;28;20032;-61
2022/01/05 03:22:49;;;;;;;9.98;2.30;;;;;;;;;;5074670;28;20040;-62
2022/01/05 03:25:19;;;;;;;17.08;2.47;;;;;;;;;;5072703;28;20084;-62
2022/01/05 03:27:46;;;;;;;11.60;2.17;;;;;;;;;;5054580;28;20044;-62
2022/01/05 03:30:14;;;;;;;14.65;2.40;;;;;;;;;;5054649;28;20045;-62
2022/01/05 03:32:59;;;;;;;11.85;1.67;;;;;;;;;;5053827;28;20036;-62
2022/01/05 03:35:25;;;;;;;10.38;1.80;;;;;;;;;;5054524;28;20440;-62
2022/01/05 03:37:51;;;;;;;15.82;2.22;;;;;;;;;;5054411;28;20087;-61
2022/01/05 03:40:17;;;;;;;12.73;2.28;;;;;;;;;;5053836;28;20051;-62
2022/01/05 03:42:43;;;;;;;18.23;2.20;;;;;;;;;;5053901;28;20079;-62
2022/01/05 03:45:09;;;;;;;20.95;2.30;;;;;;;;;;5054403;28;20043;-62
2022/01/05 03:47:36;;;;;;;17.30;2.42;;;;;;;;;;5053924;28;20040;-62
2022/01/05 03:50:02;;;;;;;11.88;2.40;;;;;;;;;;5054394;28;20368;-62
2022/01/05 03:52:28;;;;;;;13.77;2.33;;;;;;;;;;5053832;28;20036;-62
2022/01/05 03:54:54;;;;;;;21.55;2.80;;;;;;;;;;5053435;28;20077;-62
2022/01/05 03:57:20;;;;;;;14.02;2.15;;;;;;;;;;5054138;28;20063;-61
2022/01/05 03:59:46;;;;;;;9.00;2.22;;;;;;;;;;5053635;28;20033;-61
2022/01/05 04:02:12;;;;;;;12.25;2.20;;;;;;;;;;5053312;28;20052;-61
2022/01/05 04:04:38;;;;;;;12.15;2.40;;;;;;;;;;5053808;28;20049;-61
2022/01/05 04:07:04;;;;;;;9.77;2.40;;;;;;;;;;5053957;28;20503;-61
2022/01/05 04:09:30;;;;;;;17.25;2.00;;;;;;;;;;5053252;28;20082;-62
2022/01/05 04:11:56;;;;;;;16.13;2.58;;;;;;;;;;5053841;28;20822;-62
2022/01/05 04:14:23;;;;;;;13.25;1.88;;;;;;;;;;5053706;28;20040;-61
2022/01/05 04:16:49;;;;;;;11.38;2.13;;;;;;;;;;5051527;28;20045;-61
2022/01/05 04:19:15;;;;;;;13.90;2.15;;;;;;;;;;5053441;28;20040;-62
2022/01/05 04:21:41;;;;;;;17.27;2.00;;;;;;;;;;5053737;28;20459;-62
2022/01/05 04:24:07;;;;;;;12.90;2.30;;;;;;;;;;5052382;28;20471;-62
2022/01/05 04:26:33;;;;;;;10.73;1.92;;;;;;;;;;5065286;28;20060;-62
2022/01/05 04:28:59;;;;;;;16.35;2.08;;;;;;;;;;5073201;28;20056;-62
2022/01/05 04:31:25;;;;;;;12.85;2.38;;;;;;;;;;5072920;28;20475;-62
2022/01/05 04:33:51;;;;;;;10.88;1.98;;;;;;;;;;5073264;28;20036;-62
2022/01/05 04:36:17;;;;;;;15.40;2.42;;;;;;;;;;5072975;28;20036;-62
2022/01/05 04:38:43;;;;;;;17.02;2.30;;;;;;;;;;5072682;28;20044;-62
2022/01/05 04:41:09;;;;;;;12.95;1.77;;;;;;;;;;5073309;28;20772;-62
2022/01/05 04:43:35;;;;;;;14.70;2.33;;;;;;;;;;5073276;28;20363;-62
2022/01/05 04:46:01;;;;;;;11.10;1.63;;;;;;;;;;5072621;28;20044;-62
2022/01/05 04:48:27;;;;;;;13.82;2.00;;;;;;;;;;5073157;28;20040;-62
2022/01/05 04:50:53;;;;;;;10.77;1.73;;;;;;;;;;5073112;28;20117;-62
2022/01/05 04:53:19;;;;;;;13.85;1.83;;;;;;;;;;5071888;28;20048;-62
2022/01/05 04:55:45;;;;;;;10.43;1.92;;;;;;;;;;5072839;28;20655;-62
2022/01/05 04:58:12;;;;;;;11.50;1.70;;;;;;;;;;5073034;28;20044;-62
2022/01/05 05:00:38;;;;;;;14.30;2.28;;;;;;;;;;5072275;28;20478;-62
2022/01/05 05:03:04;;;;;;;12.00;1.85;;;;;;;;;;5105480;28;20483;-62
2022/01/05 05:05:30;;;;;;;15.15;2.00;;;;;;;;;;5072739;28;20048;-62
2022/01/05 05:07:58;;;;;;;11.32;1.75;;;;;;;;;;5072162;28;20499;-62
2022/01/05 05:10:24;;;;;;;7.38;1.65;;;;;;;;;;5071699;28;20044;-62
2022/01/05 05:12:50;;;;;;;8.38;1.63;;;;;;;;;;5072655;28;20477;-62
2022/01/05 05:15:16;;;;;;;11.75;1.63;;;;;;;;;;5071880;28;20037;-62
2022/01/05 05:17:42;;;;;;;9.25;1.60;;;;;;;;;;5072587;28;20039;-62
2022/01/05 05:20:08;;;;;;;10.13;2.05;;;;;;;;;;5072530;28;20247;-62
2022/01/05 05:22:35;;;;;;;11.30;2.03;;;;;;;;;;5071733;28;20383;-62
2022/01/05 05:25:02;;;;;;;13.27;1.75;;;;;;;;;;5072038;28;20060;-61
2022/01/05 05:27:28;;;;;;;9.88;1.63;;;;;;;;;;5053162;28;20080;-62
2022/01/05 05:29:54;;;;;;;12.15;1.77;;;;;;;;;;5051607;28;20455;-62
2022/01/05 05:32:20;;;;;;;13.60;2.15;;;;;;;;;;5051969;28;20049;-62
2022/01/05 05:34:46;;;;;;;8.25;1.75;;;;;;;;;;5051706;28;20127;-62
2022/01/05 05:37:12;;;;;;;11.35;1.55;;;;;;;;;;5051672;28;20098;-62
2022/01/05 05:39:38;;;;;;;13.20;1.88;;;;;;;;;;5052017;28;20386;-62
2022/01/05 05:42:04;;;;;;;17.10;2.10;;;;;;;;;;5051907;28;20043;-62
2022/01/05 05:44:30;;;;;;;9.85;1.55;;;;;;;;;;5051247;28;20049;-62
2022/01/05 05:46:56;;;;;;;11.30;1.92;;;;;;;;;;5051931;28;20091;-62
2022/01/05 05:49:22;;;;;;;13.70;1.73;;;;;;;;;;5051721;28;20045;-62
2022/01/05 05:51:48;;;;;;;11.07;2.13;;;;;;;;;;5051025;28;20072;-62
2022/01/05 05:54:14;;;;;;;11.10;2.38;;;;;;;;;;5051481;28;20037;-62
2022/01/05 05:56:41;;;;;;;14.75;2.33;;;;;;;;;;5051794;28;20056;-62
2022/01/05 05:59:07;;;;;;;12.15;2.63;;;;;;;;;;5051324;28;20043;-62
2022/01/05 06:01:33;;;;;;;8.50;1.95;;;;;;;;;;5051887;28;20095;-62
2022/01/05 06:03:59;;;;;;;16.40;2.17;;;;;;;;;;5051732;28;20439;-62
2022/01/05 06:06:25;;;;;;;13.00;2.10;;;;;;;;;;5051230;28;20072;-62
2022/01/05 06:08:51;;;;;;;13.27;2.50;;;;;;;;;;5051658;28;20136;-62
2022/01/05 06:11:17;;;;;;;10.43;1.70;;;;;;;;;;5051322;28;20037;-62
2022/01/05 06:13:43;;;;;;;12.93;2.67;;;;;;;;;;5051141;28;20049;-62
2022/01/05 06:16:09;;;;;;;14.32;2.10;;;;;;;;;;5050805;28;20037;-62
2022/01/05 06:18:35;;;;;;;12.02;1.77;;;;;;;;;;5051154;28;20049;-62
2022/01/05 06:21:01;;;;;;;16.70;2.58;;;;;;;;;;5051147;28;20073;-62
2022/01/05 06:23:28;;;;;;;9.95;2.10;;;;;;;;;;5050710;28;20049;-62
2022/01/05 06:25:54;;;;;;;17.05;1.80;;;;;;;;;;5057401;28;20050;-62
2022/01/05 06:28:20;;;;;;;17.48;2.20;;;;;;;;;;5071410;28;20044;-62
2022/01/05 06:30:46;;;;;;;10.80;2.10;;;;;;;;;;5070690;28;20045;-62
2022/01/05 06:33:12;;;;;;;19.55;2.80;;;;;;;;;;5071228;28;20098;-62
2022/01/05 06:35:38;;;;;;;11.30;2.50;;;;;;;;;;5071343;28;20032;-61
2022/01/05 06:38:04;;;;;;;17.10;2.65;;;;;;;;;;5070716;28;20753;-61
2022/01/05 06:40:30;;;;;;;12.10;2.25;;;;;;;;;;5071463;28;20638;-61
2022/01/05 06:42:56;;;;;;;15.95;2.33;;;;;;;;;;5071242;28;20090;-61
2022/01/05 06:45:22;;;;;;;13.05;2.03;;;;;;;;;;5070600;28;20135;-62
2022/01/05 06:47:49;;;;;;;20.55;1.98;;;;;;;;;;5071244;28;20399;-62
2022/01/05 06:50:15;;;;;;;12.70;1.65;;;;;;;;;;5071391;28;20036;-62
2022/01/05 06:52:41;;;;;;;10.25;2.55;;;;;;;;;;5068783;28;20101;-62
2022/01/05 06:55:09;;;;;;;11.60;1.98;;;;;;;;;;5069996;28;20032;-62
2022/01/05 06:57:37;;;;;;;12.73;1.80;;;;;;;;;;5070604;28;20475;-62
2022/01/05 07:00:04;;;;;;;14.90;2.30;;;;;;;;;;5070351;28;20174;-62
2022/01/05 07:02:30;;;;;;;11.02;1.60;;;;;;;;;;5071126;28;20082;-62
2022/01/05 07:04:56;;;;;;;9.38;1.90;;;;;;;;;;5070503;28;20048;-62
2022/01/05 07:07:22;;;;;;;8.88;1.45;;;;;;;;;;5070434;28;20398;-62
2022/01/05 07:09:48;;;;;;;10.50;1.50;;;;;;;;;;5070508;28;20506;-62
2022/01/05 07:12:14;;;;;;;3.50;0.88;;;;;;;;;;5070846;28;20037;-62
2022/01/05 07:14:40;;;;;;;6.60;1.10;;;;;;;;;;5070061;28;20051;-62
2022/01/05 07:17:07;;;;;;;8.27;1.45;;;;;;;;;;5066110;28;20046;-62
2022/01/05 07:19:33;;;;;;;10.07;1.40;;;;;;;;;;5070405;28;20041;-62
2022/01/05 07:21:59;;;;;;;4.60;1.05;;;;;;;;;;5068486;28;20416;-61
2022/01/05 07:24:25;;;;;;;4.25;1.02;;;;;;;;;;5069278;28;20088;-61
2022/01/05 07:26:51;;;;;;;8.00;1.45;;;;;;;;;;5066906;28;20132;-62
2022/01/05 07:29:19;;;;;;;8.70;1.40;;;;;;;;;;5069667;28;20564;-61
2022/01/05 07:31:45;;;;;;;4.63;1.20;;;;;;;;;;5070270;28;20044;-61
2022/01/05 07:34:11;;;;;;;9.93;1.30;;;;;;;;;;5071783;28;20041;-61
2022/01/05 07:36:37;;;;;;;5.97;1.08;;;;;;;;;;5072508;28;20037;-61
2022/01/05 07:39:05;;;;;;;5.97;1.45;;;;;;;;;;5073831;28;20128;-61
2022/01/05 07:41:31;;;;;;;9.65;2.47;;;;;;;;;;5071898;28;20044;-62
2022/01/05 07:43:57;;;;;;;11.75;2.22;;;;;;;;;;5073222;28;20051;-62
2022/01/05 07:46:23;;;;;;;7.88;1.70;;;;;;;;;;5073351;28;20049;-61
2022/01/05 07:48:50;;;;;;;9.85;1.65;;;;;;;;;;5072365;28;20048;-62
2022/01/05 07:51:16;;;;;;;15.63;2.35;;;;;;;;;;5073186;28;20124;-61
2022/01/05 07:53:42;;;;;;;10.32;2.00;;;;;;;;;;5063120;28;20041;-61
2022/01/05 07:56:08;;;;;;;8.18;1.52;;;;;;;;;;5073128;28;20536;-61
2022/01/05 07:58:35;;;;;;;8.63;1.92;;;;;;;;;;5072058;28;20090;-61
2022/01/05 08:01:03;;;;;;;14.18;2.20;;;;;;;;;;5072245;28;20041;-61
2022/01/05 08:03:32;;;;;;;11.38;1.60;;;;;;;;;;5072560;28;20110;-61
2022/01/05 08:05:59;;;;;;;15.10;1.92;;;;;;;;;;5071997;28;20089;-60
2022/01/05 08:08:25;;;;;;;15.82;2.83;;;;;;;;;;5071797;28;20037;-62
2022/01/05 08:10:51;;;;;;;12.50;1.98;;;;;;;;;;5072626;28;20122;-62
2022/01/05 08:13:17;;;;;;;12.85;1.92;;;;;;;;;;5071858;28;20431;-61
2022/01/05 08:15:44;;;;;;;14.32;2.40;;;;;;;;;;5071418;28;20132;-62
2022/01/05 08:18:10;;;;;;;21.23;2.75;;;;;;;;;;5072393;28;20036;-61
2022/01/05 08:20:36;;;;;;;14.30;2.20;;;;;;;;;;5071726;28;20060;-61
2022/01/05 08:23:03;;;;;;;12.77;2.40;;;;;;;;;;5060031;28;20036;-62
2022/01/05 08:25:29;;;;;;;12.55;2.10;;;;;;;;;;5071704;28;20060;-61
2022/01/05 08:27:56;;;;;;;22.55;1.83;;;;;;;;;;5071742;28;20048;-62
2022/01/05 08:30:24;;;;;;;13.10;2.25;;;;;;;;;;5071267;28;20052;-61
2022/01/05 08:32:51;;;;;;;16.23;2.15;;;;;;;;;;5069564;28;20093;-61
2022/01/05 08:35:18;;;;;;;16.75;1.75;;;;;;;;;;5071250;28;20048;-61
2022/01/05 08:37:46;;;;;;;11.02;1.48;;;;;;;;;;5072200;28;20040;-61
2022/01/05 08:40:14;;;;;;;6.70;1.10;;;;;;;;;;5072020;28;20068;-61
2022/01/05 08:42:41;;;;;;;9.93;1.63;;;;;;;;;;5070082;28;20064;-61
2022/01/05 08:45:08;;;;;;;12.32;1.55;;;;;;;;;;5069391;28;20048;-61
2022/01/05 08:47:34;;;;;;;8.70;1.58;;;;;;;;;;5072011;28;20040;-62
2022/01/05 08:50:00;;;;;;;9.75;1.70;;;;;;;;;;5070325;28;20041;-62
2022/01/05 08:52:26;;;;;;;9.10;1.40;;;;;;;;;;5071793;28;20048;-61
2022/01/05 08:54:52;;;;;;;10.38;1.60;;;;;;;;;;5071430;28;20744;-61
2022/01/05 08:57:18;;;;;;;7.43;1.45;;;;;;;;;;5070776;28;20040;-61
2022/01/05 08:59:44;;;;;;;13.27;1.75;;;;;;;;;;5071148;28;20043;-61
2022/01/05 09:02:15;;;;;;;13.88;2.75;;;;;;;;;;5069552;28;20063;-61
2022/01/05 09:04:42;;;;;;;8.88;1.38;;;;;;;;;;5070279;28;20055;-62
2022/01/05 09:07:08;;;;;;;5.82;0.93;;;;;;;;;;5070576;28;20040;-61
2022/01/05 09:09:34;;;;;;;10.45;1.23;;;;;;;;;;5071048;28;20526;-62
2022/01/05 09:12:00;;;;;;;8.18;1.33;;;;;;;;;;5071146;28;20036;-62
2022/01/05 09:14:26;;;;;;;9.30;1.88;;;;;;;;;;5070373;28;20041;-61
2022/01/05 09:16:52;;;;;;;10.80;1.58;;;;;;;;;;5071098;28;20041;-61
2022/01/05 09:19:18;;;;;;;12.98;1.50;;;;;;;;;;5070310;28;20111;-62
2022/01/05 09:21:48;;;;;;;9.63;1.30;;;;;;;;;;5071338;28;20036;-62
2022/01/05 09:24:15;;;;;;;16.73;1.60;;;;;;;;;;5070276;28;20048;-62
2022/01/05 09:26:41;;;;;;;11.57;2.17;;;;;;;;;;5069877;28;20068;-61
2022/01/05 09:29:07;;;;;;;15.27;2.40;;;;;;;;;;5069785;28;20047;-62
2022/01/05 09:31:33;;;;;;;16.25;1.95;;;;;;;;;;5071390;28;20048;-63
2022/01/05 09:34:00;;;;;;;14.18;2.33;;;;;;;;;;5067462;28;20048;-63
2022/01/05 09:36:36;;;;;;;9.13;1.48;;;;;;;;;;5062492;28;20032;-62
2022/01/05 09:41:57;;;;;;;15.40;2.08;;;;;;;;;;5067820;28;21682;-63
2022/01/05 09:44:31;;;;;;;14.55;2.20;;;;;;;;;;5068006;28;20040;-62
2022/01/05 09:47:12;;;;;;;11.98;2.42;;;;;;;;;;5068313;28;20040;-62
2022/01/05 09:49:58;;;;;;;18.42;2.72;;;;;;;;;;5067972;28;20055;-62
2022/01/05 09:52:24;;;;;;;10.65;1.58;;;;;;;;;;5066942;28;20055;-62
2022/01/05 09:54:50;;;;;;;15.43;2.47;;;;;;;;;;5068880;28;20094;-62
2022/01/05 09:57:18;;;;;;;19.55;2.10;;;;;;;;;;5068428;28;20076;-63
2022/01/05 09:59:46;;;;;;;21.48;2.83;;;;;;;;;;5067138;28;20075;-63
2022/01/05 10:02:13;;;;;;;14.13;2.70;;;;;;;;;;5069682;28;20147;-63
2022/01/05 10:04:40;;;;;;;13.98;2.35;;;;;;;;;;5067888;28;20032;-64
2022/01/05 10:07:06;;;;;;;17.95;2.40;;;;;;;;;;5069434;28;20538;-63
2022/01/05 10:09:32;;;;;;;22.48;3.20;;;;;;;;;;5068745;28;20036;-63
2022/01/05 10:11:58;;;;;;;21.70;3.60;;;;;;;;;;5068594;28;20806;-62
2022/01/05 10:14:24;;;;;;;15.13;2.53;;;;;;;;;;5068120;28;20055;-63
2022/01/05 10:17:01;;;;;;;29.65;3.25;;;;;;;;;;5064985;28;20352;-62
2022/01/05 10:19:27;;;;;;;25.50;2.80;;;;;;;;;;5068648;28;20122;-62
2022/01/05 10:21:55;;;;;;;22.55;2.58;;;;;;;;;;5067634;28;20033;-63
2022/01/05 10:24:40;;;;;;;14.85;2.90;;;;;;;;;;5067246;28;20102;-62
2022/01/05 10:27:06;;;;;;;23.13;2.88;;;;;;;;;;5060953;28;20056;-63
2022/01/05 10:29:32;;;;;;;22.95;3.28;;;;;;;;;;5068321;28;20094;-62
2022/01/05 10:31:59;;;;;;;12.30;2.38;;;;;;;;;;5068197;28;20040;-63
2022/01/05 10:34:26;;;;;;;23.00;3.05;;;;;;;;;;5067520;28;20048;-63
2022/01/05 10:36:53;;;;;;;23.15;2.92;;;;;;;;;;5067867;28;20090;-63
2022/01/05 10:39:21;;;;;;;16.92;3.00;;;;;;;;;;5068266;28;20044;-62
2022/01/05 10:41:47;;;;;;;15.20;3.03;;;;;;;;;;5069240;28;20040;-62
2022/01/05 10:44:14;;;;;;;20.73;2.45;;;;;;;;;;5100706;28;20112;-62
2022/01/05 10:46:44;;;;;;;29.73;3.25;;;;;;;;;;5068149;28;20056;-63
2022/01/05 10:49:17;;;;;;;18.38;2.70;;;;;;;;;;5064188;28;20072;-63
2022/01/05 10:51:43;;;;;;;;;;;;;;;;;;5066439;28;20518;-62
2022/01/05 10:54:13;;;;;;;18.20;2.85;;;;;;;;;;5068529;28;19920;-62
2022/01/05 10:56:39;;;;;;;15.27;3.30;;;;;;;;;;5067567;28;20478;-63
2022/01/05 10:59:05;;;;;;;13.32;1.90;;;;;;;;;;5066504;28;20051;-63
2022/01/05 11:01:32;;;;;;;16.02;2.03;;;;;;;;;;5067910;28;20530;-62
2022/01/05 11:03:58;;;;;;;16.60;2.17;;;;;;;;;;5068806;28;20041;-63
2022/01/05 11:06:24;;;;;;;17.17;2.50;;;;;;;;;;5067452;28;20073;-63
2022/01/05 11:08:52;;;;;;;12.85;2.38;;;;;;;;;;5070617;28;20044;-63
2022/01/05 11:11:37;;;;;;;13.27;2.47;;;;;;;;;;5071416;28;20040;-63
2022/01/05 11:14:04;;;;;;;20.05;2.60;;;;;;;;;;5072886;28;20067;-62
2022/01/05 11:16:31;;;;;;;12.68;2.20;;;;;;;;;;5070853;28;20554;-62
2022/01/05 11:19:16;;;;;;;19.02;2.33;;;;;;;;;;5072276;28;20032;-62
2022/01/05 11:21:54;;;;;;;13.25;2.55;;;;;;;;;;5064599;28;20031;-62
2022/01/05 11:24:20;;;;;;;16.55;2.70;;;;;;;;;;5072004;28;20063;-63
2022/01/05 11:26:47;;;;;;;22.67;4.82;;;;;;;;;;5060935;28;20048;-62
2022/01/05 11:29:13;;;;;;;17.63;1.83;;;;;;;;;;5073415;28;20378;-63
2022/01/05 11:31:39;;;;;;;17.38;2.25;;;;;;;;;;5071812;28;20117;-63
2022/01/05 11:34:05;;;;;;;14.25;2.13;;;;;;;;;;5069271;28;20041;-64
2022/01/05 11:36:32;;;;;;;13.60;1.48;;;;;;;;;;5070846;28;20120;-63
2022/01/05 11:38:59;;;;;;;9.32;1.48;;;;;;;;;;5072446;28;20058;-64
2022/01/05 11:41:25;;;;;;;10.93;1.50;;;;;;;;;;5071757;28;20040;-64
2022/01/05 11:43:51;;;;;;;10.77;1.70;;;;;;;;;;5072593;28;20048;-65
2022/01/05 11:46:21;;;;;;;9.68;1.85;;;;;;;;;;5072646;28;20048;-64
2022/01/05 11:48:59;;;;;;;15.43;1.67;;;;;;;;;;5071924;28;20135;-64
2022/01/05 11:51:30;;;;;;;19.30;1.92;;;;;;;;;;5065008;28;20452;-63
2022/01/05 11:54:12;;;;;;;8.68;2.00;;;;;;;;;;5072669;28;20123;-58
2022/01/05 11:56:42;;;;;;;14.40;2.47;;;;;;;;;;5062204;28;20483;-62
2022/01/05 11:59:19;;;;;;;8.02;1.60;;;;;;;;;;5072694;28;20071;-61
2022/01/05 12:01:56;;;;;;;9.70;1.65;;;;;;;;;;5052431;28;20566;-62
2022/01/05 12:04:23;;;;;;;10.15;2.15;;;;;;;;;;5065944;28;20053;-62
2022/01/05 12:06:49;;;;;;;10.90;1.20;;;;;;;;;;5072494;28;20036;-62
2022/01/05 12:09:17;;;;;;;6.20;1.25;;;;;;;;;;5071865;28;20043;-63
2022/01/05 12:11:44;;;;;;;5.57;1.08;;;;;;;;;;5071961;28;20645;-63
2022/01/05 12:14:22;;;;;;;7.20;1.10;;;;;;;;;;5070937;28;20570;-61
2022/01/05 12:17:06;;;;;;;10.30;1.27;;;;;;;;;;5069924;28;20770;-62
2022/01/05 12:19:34;;;;;;;10.90;1.60;;;;;;;;;;5057517;28;20041;-61
2022/01/05 12:22:19;;;;;;;13.80;1.40;;;;;;;;;;5070994;28;20068;-61
2022/01/05 12:24:54;;;;;;;8.02;1.38;;;;;;;;;;5063760;28;20114;-65
2022/01/05 12:27:22;;;;;;;11.15;1.48;;;;;;;;;;5070755;28;20052;-65
2022/01/05 12:29:48;;;;;;;9.20;1.92;;;;;;;;;;5072123;28;20094;-64
2022/01/05 12:32:33;;;;;;;12.90;2.65;;;;;;;;;;5070310;28;20396;-64
2022/01/05 12:35:00;;;;;;;10.38;2.40;;;;;;;;;;5071446;28;20036;-65
2022/01/05 12:37:47;;;;;;;13.40;2.17;;;;;;;;;;5071447;28;20094;-65
2022/01/05 12:40:46;;;;;;;11.63;1.85;;;;;;;;;;5070868;28;20276;-65
2022/01/05 12:43:13;;;;;;;15.10;2.30;;;;;;;;;;5035699;28;20089;-65
2022/01/05 12:45:54;;;;;;;11.40;2.03;;;;;;;;;;5073443;28;20051;-65
2022/01/05 12:48:35;;;;;;;11.73;2.42;;;;;;;;;;5070778;28;20674;-65
2022/01/05 12:51:22;;;;;;;14.35;3.22;;;;;;;;;;5054184;28;20139;-65
2022/01/05 12:53:53;;;;;;;17.05;2.03;;;;;;;;;;5061115;28;20044;-65
2022/01/05 12:56:26;;;;;;;10.88;2.00;;;;;;;;;;5071710;28;20070;-65
2022/01/05 12:58:53;;;;;;;6.35;1.27;;;;;;;;;;5070755;28;20039;-65
2022/01/05 13:01:32;;;;;;;5.95;1.23;;;;;;;;;;5072696;28;20058;-65
2022/01/05 13:04:00;;;;;;;3.45;1.20;;;;;;;;;;5057283;28;20068;-65
2022/01/05 13:06:27;;;;;;;8.60;1.13;;;;;;;;;;5071580;28;20048;-65
2022/01/05 13:08:58;;;;;;;9.98;1.67;;;;;;;;;;5070291;28;20044;-65
2022/01/05 13:11:44;;;;;;;10.75;1.95;;;;;;;;;;5070766;28;20424;-65
2022/01/05 13:14:21;;;;;;;10.77;1.60;;;;;;;;;;5051741;28;20629;-66
2022/01/05 13:17:02;;;;;;;8.65;1.70;;;;;;;;;;5066552;28;20170;-67
2022/01/05 13:19:28;;;;;;;10.80;2.28;;;;;;;;;;5070812;28;20637;-65
2022/01/05 13:21:55;;;;;;;17.05;2.15;;;;;;;;;;5070251;28;20604;-65
2022/01/05 13:24:24;;;;;;;10.35;1.63;;;;;;;;;;5069608;28;20375;-66
2022/01/05 13:27:08;;;;;;;14.60;2.38;;;;;;;;;;5071296;28;20055;-65
2022/01/05 13:29:35;;;;;;;13.38;1.75;;;;;;;;;;5070243;28;20040;-65
2022/01/05 13:32:02;;;;;;;11.07;1.70;;;;;;;;;;5068705;28;20380;-64
2022/01/05 13:34:40;;;;;;;15.00;2.25;;;;;;;;;;5070927;28;20466;-67
2022/01/05 13:37:07;;;;;;;17.77;2.60;;;;;;;;;;5069761;28;20063;-67
2022/01/05 13:39:38;;;;;;;16.63;2.65;;;;;;;;;;5070853;28;20127;-65
2022/01/05 13:42:04;;;;;;;22.98;2.50;;;;;;;;;;5068178;28;20050;-66
2022/01/05 13:44:30;;;;;;;15.70;2.05;;;;;;;;;;5070485;28;20679;-65
2022/01/05 13:46:56;;;;;;;16.13;2.22;;;;;;;;;;5070195;28;20052;-63
2022/01/05 13:49:24;;;;;;;16.50;2.25;;;;;;;;;;5071275;28;20475;-64
2022/01/05 13:52:04;;;;;;;13.45;1.90;;;;;;;;;;5071330;28;20080;-64
2022/01/05 13:54:30;;;;;;;12.10;2.55;;;;;;;;;;5070787;28;20433;-63
2022/01/05 13:56:56;;;;;;;18.23;2.47;;;;;;;;;;5064461;28;20040;-63
2022/01/05 13:59:22;;;;;;;16.15;2.50;;;;;;;;;;5071387;28;20479;-63
2022/01/05 14:01:57;;;;;;;22.95;3.75;;;;;;;;;;5069971;28;20043;-63
2022/01/05 14:04:24;;;;;;;21.77;2.58;;;;;;;;;;5071086;28;20067;-63
2022/01/05 14:07:00;;;;;;;24.73;3.83;;;;;;;;;;5070781;28;20043;-63
2022/01/05 14:09:29;;;;;;;14.15;2.40;;;;;;;;;;5070471;28;20040;-63
2022/01/05 14:11:57;;;;;;;18.38;2.58;;;;;;;;;;5070729;28;20041;-63
2022/01/05 14:14:24;;;;;;;17.65;3.40;;;;;;;;;;5070851;28;20067;-63
2022/01/05 14:16:51;;;;;;;13.55;2.40;;;;;;;;;;5068966;28;20451;-63
2022/01/05 14:19:24;;;;;;;18.63;2.72;;;;;;;;;;5070527;28;20081;-64
2022/01/05 14:21:50;;;;;;;18.73;2.72;;;;;;;;;;5069943;28;20055;-63
2022/01/05 14:24:37;;;;;;;14.52;2.13;;;;;;;;;;5070006;28;20071;-63
2022/01/05 14:27:04;;;;;;;18.13;2.35;;;;;;;;;;5070493;28;20056;-64
2022/01/05 14:29:30;;;;;;;16.80;3.03;;;;;;;;;;5070884;28;20518;-63
2022/01/05 14:32:06;;;;;;;11.52;1.85;;;;;;;;;;5070355;28;20071;-64
2022/01/05 14:34:37;;;;;;;11.75;1.77;;;;;;;;;;5070790;28;20131;-64
2022/01/05 14:37:05;;;;;;;19.33;2.70;;;;;;;;;;5069461;28;20135;-64
2022/01/05 14:39:41;;;;;;;13.63;2.08;;;;;;;;;;5070967;28;20282;-64